Marialva, Brazil
Current Conditions -  °F | °C
As of 7:00 PM on Saturday 22 Nov 2014 (Local Time) from SBMG Reporting Station
Scattered Clouds Scattered Clouds  
Wind Chill: 73°   Ceiling: Unl
Heat Index: 73°   Visibility: 6mi
Dew Point: 68°   Wind: 6mph
Humidity: 83%   Direction: 330°NNW
Pressure: 29.91"   Gusts: NA
Location:  23.49°S, 51.79°W
Report Text: SBMG 222100Z 33005KT 9999 FEW008 SCT025 FEW035TCU 23/20 Q1013
Loading
Personal Weather Stations






























Interactive Weather Map New forecast layout! Learn more

10-Day Weather Forecast

Advertisements
Track Severe Weather on mobile